Time;durP1;ratioP1;P1;durP2;ratioP2;P2;SDS_P1;SDS_P2;PMS_P1;PMS_P2;Temp;Humidity;BMP_temperature;BMP_pressure;BME280_temperature;BME280_humidity;BME280_pressure;Samples;Min_cycle;Max_cycle;Signal;HPM_P1;HPM_P2
2023/10/28 00:02:14;;;;;;;14.82;11.25;;;;;;;-145.63;63.70;39215.91;5003945;28;20029;-70
2023/10/28 00:04:41;;;;;;;16.88;12.73;;;;;;;-145.63;64.07;39255.00;5004417;28;20026;-70
2023/10/28 00:07:06;;;;;;;17.13;12.80;;;;;;;-145.63;63.31;39215.91;5004041;28;20053;-70
2023/10/28 00:09:32;;;;;;;16.20;12.02;;;;;;;-145.63;62.97;39251.09;4986775;28;20049;-71
2023/10/28 00:11:58;;;;;;;17.05;13.50;;;;;;;-145.63;62.60;39008.59;5003549;28;20022;-71
2023/10/28 00:14:23;;;;;;;15.13;12.57;;;;;;;-145.63;62.45;39260.88;5003620;28;20038;-71
2023/10/28 00:16:49;;;;;;;18.27;13.85;;;;;;;-145.63;62.70;39253.06;5003945;28;20265;-71
2023/10/28 00:19:16;;;;;;;14.82;11.15;;;;;;;-145.63;62.71;39255.00;5004287;28;20030;-71
2023/10/28 00:21:42;;;;;;;17.70;12.32;;;;;;;-145.63;63.18;39243.28;5003932;28;20019;-71
2023/10/28 00:24:10;;;;;;;17.85;14.00;;;;;;;-145.63;63.03;39196.34;5003717;28;20338;-71
2023/10/28 00:26:35;;;;;;;18.48;13.65;;;;;;;-145.63;63.35;39212.00;5003754;28;20053;-71
2023/10/28 00:29:01;;;;;;;17.00;12.95;;;;;;;-145.63;63.53;39239.38;5003962;28;20042;-71
2023/10/28 00:31:28;;;;;;;18.65;13.55;;;;;;;-145.63;63.54;39270.66;5004183;28;20027;-70
2023/10/28 00:33:54;;;;;;;16.48;13.60;;;;;;;-145.63;63.37;39255.00;5003919;28;20026;-70
2023/10/28 00:36:20;;;;;;;19.33;13.52;;;;;;;-145.63;62.51;39272.63;5003442;28;20080;-69
2023/10/28 00:38:45;;;;;;;17.17;14.18;;;;;;;-145.63;62.44;39272.63;5003933;28;20057;-70
2023/10/28 00:41:11;;;;;;;15.63;13.30;;;;;;;-145.63;63.22;39231.53;5003576;28;20223;-70
2023/10/28 00:43:37;;;;;;;22.60;16.13;;;;;;;-145.63;63.18;39243.28;5003863;28;20022;-70
2023/10/28 00:46:03;;;;;;;18.42;15.63;;;;;;;-145.63;63.92;39237.41;5003398;28;20032;-69
2023/10/28 00:48:30;;;;;;;17.42;15.55;;;;;;;-145.63;63.43;39319.56;5002991;28;20050;-70
2023/10/28 00:50:57;;;;;;;19.23;15.85;;;;;;;-145.63;63.19;39245.25;4985774;28;20093;-69
2023/10/28 00:53:24;;;;;;;18.38;14.10;;;;;;;-145.63;63.47;39243.28;5003057;28;20157;-69
2023/10/28 00:55:51;;;;;;;17.63;15.07;;;;;;;-145.63;63.45;39043.81;5002601;28;20033;-69
2023/10/28 00:58:21;;;;;;;15.85;14.15;;;;;;;-145.63;62.75;39256.97;5000209;28;20034;-70
2023/10/28 01:00:48;;;;;;;18.42;14.27;;;;;;;-145.63;62.61;39266.75;5003420;28;20319;-68
2023/10/28 01:03:15;;;;;;;20.02;14.90;;;;;;;-145.63;62.95;39264.78;5003302;28;20034;-69
2023/10/28 01:05:40;;;;;;;17.27;13.90;;;;;;;-145.63;62.53;39247.19;5003440;28;20030;-69
2023/10/28 01:08:06;;;;;;;17.60;14.15;;;;;;;-145.63;62.63;39241.31;5003197;28;20086;-69
2023/10/28 01:10:36;;;;;;;17.65;15.13;;;;;;;-145.63;62.78;39243.28;5003136;28;20088;-70
2023/10/28 01:13:04;;;;;;;20.40;15.95;;;;;;;-145.63;62.86;39245.25;5003017;28;20027;-70
2023/10/28 01:15:30;;;;;;;17.58;15.02;;;;;;;-145.63;63.38;39311.72;5002905;28;20019;-71
2023/10/28 01:17:59;;;;;;;18.05;14.23;;;;;;;-145.63;62.86;39278.47;5002929;28;20085;-71
2023/10/28 01:20:25;;;;;;;17.92;14.25;;;;;;;-145.63;63.25;39280.44;5002707;28;20022;-70
2023/10/28 01:22:51;;;;;;;18.73;13.68;;;;;;;-145.63;63.31;39192.44;5003420;28;20027;-70
2023/10/28 01:25:17;;;;;;;17.85;13.27;;;;;;;-145.63;63.12;39251.09;4985162;28;20287;-69
2023/10/28 01:27:44;;;;;;;16.42;13.30;;;;;;;-145.63;63.55;39268.72;5003020;28;20104;-70
2023/10/28 01:30:14;;;;;;;17.15;13.00;;;;;;;-145.63;63.14;39229.59;5002865;28;20049;-69
2023/10/28 01:32:44;;;;;;;16.13;12.65;;;;;;;-145.63;62.62;39245.25;5002921;28;20259;-71
2023/10/28 01:35:10;;;;;;;15.27;13.20;;;;;;;-145.63;63.08;39256.97;5003100;28;20029;-70
2023/10/28 01:37:39;;;;;;;18.10;13.52;;;;;;;-145.63;63.06;39274.56;4985902;28;20310;-71
2023/10/28 01:40:17;;;;;;;16.05;11.73;;;;;;;-145.63;63.37;39235.47;5006096;28;20037;-71
2023/10/28 01:42:45;;;;;;;16.48;11.95;;;;;;;-145.63;63.45;39215.91;5006525;28;20315;-71
2023/10/28 01:45:12;;;;;;;13.73;10.90;;;;;;;-145.63;63.84;39253.06;4989126;28;20030;-71
2023/10/28 01:47:41;;;;;;;14.52;11.18;;;;;;;-145.63;63.66;39210.03;5006604;28;20027;-70
2023/10/28 01:50:07;;;;;;;15.98;11.75;;;;;;;-145.63;63.58;39243.28;5006337;28;20041;-70
2023/10/28 01:52:33;;;;;;;13.98;11.32;;;;;;;-145.63;63.59;39204.16;4985548;28;20073;-70
2023/10/28 01:54:59;;;;;;;14.35;11.15;;;;;;;-145.63;62.90;39233.50;4986501;28;20034;-71
2023/10/28 01:57:25;;;;;;;15.20;11.55;;;;;;;-145.63;63.64;39204.16;4986215;28;20323;-70
2023/10/28 01:59:52;;;;;;;14.50;11.45;;;;;;;-145.63;63.78;39249.16;4986777;28;20035;-71
2023/10/28 02:02:19;;;;;;;13.77;11.15;;;;;;;-145.63;64.07;39270.66;4986125;28;20046;-70
2023/10/28 02:04:45;;;;;;;13.75;10.43;;;;;;;-145.63;63.71;39245.25;4986762;28;20027;-71
2023/10/28 02:07:10;;;;;;;13.43;9.88;;;;;;;-145.63;64.13;39231.53;4993276;28;20022;-70
2023/10/28 02:09:36;;;;;;;13.60;10.50;;;;;;;-145.63;63.64;39245.25;5006227;28;20038;-71
2023/10/28 02:12:02;;;;;;;13.27;10.82;;;;;;;-145.63;63.37;39229.59;4997376;28;20037;-71
2023/10/28 02:14:28;;;;;;;13.43;10.68;;;;;;;-145.63;63.79;39247.19;4986785;28;20054;-70
2023/10/28 02:16:59;;;;;;;14.05;10.85;;;;;;;-145.63;63.72;39229.59;4986529;28;20302;-71
2023/10/28 02:19:25;;;;;;;13.27;10.48;;;;;;;-145.63;63.78;39235.47;4967564;28;20034;-70
2023/10/28 02:21:50;;;;;;;16.50;11.63;;;;;;;-145.63;63.68;39260.88;4982418;28;20019;-70
2023/10/28 02:24:19;;;;;;;16.70;13.38;;;;;;;-145.63;63.33;39000.78;4986201;28;20030;-70
2023/10/28 02:26:45;;;;;;;14.15;11.68;;;;;;;-145.63;63.06;39280.44;4986130;28;20031;-70
2023/10/28 02:29:12;;;;;;;16.33;11.80;;;;;;;-145.63;63.20;39268.72;4986570;28;20027;-70
2023/10/28 02:31:37;;;;;;;14.98;12.35;;;;;;;-145.63;63.03;39245.25;4986187;28;20026;-69
2023/10/28 02:34:06;;;;;;;14.27;12.13;;;;;;;-145.63;63.31;39241.31;4985911;28;20049;-71
2023/10/28 02:36:33;;;;;;;14.20;12.68;;;;;;;-145.63;63.52;39221.78;4968818;28;20444;-70
2023/10/28 02:38:59;;;;;;;14.13;12.63;;;;;;;-145.63;63.25;39219.81;4986267;28;20027;-70
2023/10/28 02:41:25;;;;;;;14.15;12.65;;;;;;;-145.63;63.54;39260.88;4986287;28;20310;-70
2023/10/28 02:43:51;;;;;;;14.32;11.55;;;;;;;-145.63;64.26;39380.19;4986203;28;20026;-71
2023/10/28 02:46:23;;;;;;;15.20;12.10;;;;;;;-145.63;63.77;39227.63;4985624;28;20033;-70
2023/10/28 02:48:49;;;;;;;14.32;12.05;;;;;;;-145.63;64.02;39268.72;4985687;28;20200;-70
2023/10/28 02:51:15;;;;;;;15.95;12.25;;;;;;;-145.63;63.95;39262.84;4984591;28;20029;-70
2023/10/28 02:53:40;;;;;;;16.58;13.10;;;;;;;-145.63;64.07;39217.84;5003434;28;20038;-70
2023/10/28 02:56:06;;;;;;;15.35;12.23;;;;;;;-145.63;63.64;39264.78;5004496;28;20279;-70
2023/10/28 02:58:32;;;;;;;14.80;12.63;;;;;;;-145.63;64.15;39260.88;4987702;28;20034;-71
2023/10/28 03:01:06;;;;;;;15.27;11.32;;;;;;;-145.63;63.84;39305.88;5005084;28;20022;-69
2023/10/28 03:03:32;;;;;;;13.38;11.25;;;;;;;-145.63;63.58;39282.41;5005067;28;20034;-70
2023/10/28 03:05:58;;;;;;;13.07;11.48;;;;;;;-145.63;63.41;39298.03;5005158;28;20033;-71
2023/10/28 03:08:23;;;;;;;13.75;11.80;;;;;;;-145.63;63.64;39274.56;5008728;28;20053;-70
2023/10/28 03:10:49;;;;;;;13.07;11.10;;;;;;;-145.63;63.88;39210.03;5005315;28;20027;-71
2023/10/28 03:13:15;;;;;;;15.32;11.77;;;;;;;-145.63;63.47;39249.16;5004582;28;20022;-70
2023/10/28 03:15:40;;;;;;;15.85;13.02;;;;;;;-145.63;63.73;39249.16;5004809;28;20034;-69
2023/10/28 03:18:06;;;;;;;15.25;13.00;;;;;;;-145.63;63.55;39278.47;5004522;28;20030;-71
2023/10/28 03:20:32;;;;;;;14.55;12.20;;;;;;;-145.63;63.39;39274.56;5004669;28;20226;-71
2023/10/28 03:22:57;;;;;;;15.45;11.85;;;;;;;-145.63;63.58;39255.00;5004797;28;20022;-70
2023/10/28 03:25:23;;;;;;;12.95;11.55;;;;;;;-145.63;63.08;39212.00;5004646;28;20277;-70
2023/10/28 03:27:49;;;;;;;13.68;10.70;;;;;;;-145.63;63.74;39104.44;5004771;28;20089;-70
2023/10/28 03:30:15;;;;;;;12.68;10.48;;;;;;;-145.63;63.77;39235.47;5004349;28;20033;-70
2023/10/28 03:32:41;;;;;;;13.18;11.00;;;;;;;-145.63;64.03;39243.28;5003902;28;20018;-70
2023/10/28 03:35:07;;;;;;;12.00;10.35;;;;;;;-145.63;63.65;39221.78;5004248;28;20053;-70
2023/10/28 03:37:34;;;;;;;14.27;10.80;;;;;;;-145.63;63.93;39245.25;5004754;28;20055;-69
2023/10/28 03:39:59;;;;;;;15.15;11.50;;;;;;;-145.63;63.82;39274.56;5004339;28;20026;-70
2023/10/28 03:42:25;;;;;;;13.75;11.40;;;;;;;-145.63;63.92;39245.25;5004349;28;20038;-70
2023/10/28 03:44:50;;;;;;;14.20;10.50;;;;;;;-145.63;63.95;39278.47;5004171;28;20117;-70
2023/10/28 03:47:16;;;;;;;14.57;11.18;;;;;;;-145.63;63.97;39227.63;5003960;28;20033;-69
2023/10/28 03:49:42;;;;;;;13.57;11.05;;;;;;;-145.63;63.59;39221.78;5004378;28;20275;-69
2023/10/28 03:52:07;;;;;;;11.30;9.85;;;;;;;-145.63;63.86;39241.31;5002784;28;20353;-70
2023/10/28 03:54:33;;;;;;;13.82;10.38;;;;;;;-145.63;64.20;39243.28;5003643;28;20041;-70
2023/10/28 03:56:59;;;;;;;15.98;10.98;;;;;;;-145.63;64.54;39258.94;5003278;28;20188;-70
2023/10/28 03:59:25;;;;;;;13.90;11.32;;;;;;;-145.63;64.32;39255.00;5003791;28;20172;-71
2023/10/28 04:01:50;;;;;;;12.95;10.32;;;;;;;-145.63;64.00;39255.00;5003743;28;20049;-69
2023/10/28 04:04:17;;;;;;;12.20;10.77;;;;;;;-145.63;64.12;39262.84;5003660;28;20042;-71
2023/10/28 04:06:42;;;;;;;18.48;11.60;;;;;;;-145.63;64.32;39255.00;5003922;28;20029;-71
2023/10/28 04:09:08;;;;;;;11.45;9.85;;;;;;;-145.63;64.45;39260.88;5004110;28;20026;-69
2023/10/28 04:11:34;;;;;;;13.23;10.77;;;;;;;-145.63;64.68;39227.63;5004041;28;20026;-70
2023/10/28 04:13:59;;;;;;;13.70;10.75;;;;;;;-145.63;64.36;39067.28;4986442;28;20026;-70
2023/10/28 04:16:25;;;;;;;17.75;11.02;;;;;;;-145.63;64.67;39200.25;5003558;28;20049;-69
2023/10/28 04:18:52;;;;;;;14.93;11.40;;;;;;;-145.63;64.63;39245.25;5003957;28;20023;-70
2023/10/28 04:21:17;;;;;;;12.13;10.52;;;;;;;-145.63;64.10;39239.38;5004163;28;20026;-71
2023/10/28 04:23:43;;;;;;;13.13;10.93;;;;;;;-145.63;64.58;39255.00;4986699;28;20291;-71
2023/10/28 04:26:09;;;;;;;13.23;11.63;;;;;;;-145.63;64.68;39217.84;5003666;28;20030;-70
2023/10/28 04:28:34;;;;;;;13.43;10.65;;;;;;;-145.63;64.46;39223.72;5003839;28;20057;-71
2023/10/28 04:31:00;;;;;;;11.35;10.15;;;;;;;-145.63;64.22;39253.06;5003710;28;20137;-70
2023/10/28 04:33:26;;;;;;;14.10;10.75;;;;;;;-145.63;63.63;39258.94;4986063;28;20037;-70
2023/10/28 04:35:53;;;;;;;12.05;10.50;;;;;;;-145.63;64.29;39249.16;5003668;28;20026;-71
2023/10/28 04:38:19;;;;;;;14.52;11.75;;;;;;;-145.63;64.91;39243.28;5003519;28;20030;-70
2023/10/28 04:40:46;;;;;;;13.27;10.90;;;;;;;-145.63;64.99;39251.09;5008081;28;20307;-71
2023/10/28 04:43:11;;;;;;;11.98;10.63;;;;;;;-145.63;64.95;39251.09;5006292;28;20093;-70
2023/10/28 04:45:41;;;;;;;14.50;11.77;;;;;;;-145.63;64.42;39300.00;5003166;28;20030;-70
2023/10/28 04:48:11;;;;;;;13.07;11.00;;;;;;;-145.63;65.04;39155.28;5003320;28;20061;-70
2023/10/28 04:50:37;;;;;;;13.57;9.82;;;;;;;-145.63;64.86;39247.19;5003403;28;20026;-70
2023/10/28 04:53:03;;;;;;;14.45;10.77;;;;;;;-145.63;65.34;39239.38;5003491;28;20112;-69
2023/10/28 04:55:28;;;;;;;14.13;11.57;;;;;;;-145.63;64.93;39266.75;5002874;28;20271;-71
2023/10/28 04:57:54;;;;;;;13.10;10.65;;;;;;;-145.63;64.58;39247.19;5002892;28;20026;-70
2023/10/28 05:00:20;;;;;;;14.75;11.27;;;;;;;-145.63;64.82;39305.88;5001809;28;20090;-70
2023/10/28 05:02:46;;;;;;;11.70;10.15;;;;;;;-145.63;64.98;39278.47;5000397;28;20018;-69
2023/10/28 05:05:13;;;;;;;13.65;10.77;;;;;;;-145.63;64.38;39235.47;4977020;28;20038;-70
2023/10/28 05:07:39;;;;;;;12.18;10.45;;;;;;;-145.63;64.15;39253.06;4999114;28;20050;-70
2023/10/28 05:10:06;;;;;;;11.82;9.88;;;;;;;-145.63;64.14;39241.31;4986020;28;20026;-70
2023/10/28 05:12:32;;;;;;;11.52;9.55;;;;;;;-145.63;64.33;39307.81;5002577;28;20077;-70
2023/10/28 05:14:59;;;;;;;13.70;10.73;;;;;;;-145.63;63.95;39151.38;5005839;28;20076;-69
2023/10/28 05:17:25;;;;;;;13.02;10.13;;;;;;;-145.63;64.59;39264.78;5006788;28;20023;-69
2023/10/28 05:19:51;;;;;;;12.60;9.98;;;;;;;-145.63;64.77;39247.19;5000811;28;20026;-69
2023/10/28 05:22:18;;;;;;;11.63;10.20;;;;;;;-145.63;64.98;39231.53;4992437;28;20027;-69
2023/10/28 05:24:45;;;;;;;11.90;10.57;;;;;;;-145.63;64.58;39247.19;4995878;28;20026;-70
2023/10/28 05:27:11;;;;;;;12.27;10.45;;;;;;;-145.63;64.40;39251.09;4999046;28;20036;-68
2023/10/28 05:29:37;;;;;;;12.80;10.52;;;;;;;-145.63;64.90;39231.53;5003537;28;20318;-70
2023/10/28 05:32:02;;;;;;;10.98;9.82;;;;;;;-145.63;64.98;39219.81;4996114;28;20042;-70
2023/10/28 05:34:28;;;;;;;12.20;10.45;;;;;;;-145.63;65.73;39260.88;4997403;28;20077;-70
2023/10/28 05:36:53;;;;;;;15.20;9.88;;;;;;;-145.63;65.31;39243.28;4996923;28;20112;-69
2023/10/28 05:39:22;;;;;;;13.40;11.05;;;;;;;-145.63;65.28;39251.09;4997364;28;20158;-69
2023/10/28 05:41:48;;;;;;;11.35;9.85;;;;;;;-145.63;65.24;39266.75;5005876;28;20093;-70
2023/10/28 05:44:14;;;;;;;12.07;10.50;;;;;;;-145.63;65.31;39247.19;5006267;28;20022;-70
2023/10/28 05:46:41;;;;;;;11.20;9.90;;;;;;;-145.63;64.61;39266.75;5006498;28;20018;-69
2023/10/28 05:49:07;;;;;;;12.80;10.52;;;;;;;-145.63;64.26;39249.16;5006408;28;20041;-72
2023/10/28 05:51:36;;;;;;;12.00;9.75;;;;;;;-145.63;64.32;39253.06;5006335;28;20026;-72
2023/10/28 05:54:03;;;;;;;11.32;10.00;;;;;;;-145.63;64.00;39313.69;5006356;28;20061;-71
2023/10/28 05:56:30;;;;;;;14.15;10.40;;;;;;;-145.63;64.56;39247.19;5006036;28;20393;-68
2023/10/28 05:58:58;;;;;;;14.20;10.25;;;;;;;-145.63;64.34;39219.81;5006577;28;20177;-70
2023/10/28 06:01:27;;;;;;;12.45;10.27;;;;;;;-145.63;64.59;39223.72;4972425;28;20101;-69
2023/10/28 06:03:52;;;;;;;12.48;10.30;;;;;;;-145.63;64.35;39245.25;4988704;28;20138;-69
2023/10/28 06:06:18;;;;;;;12.70;9.98;;;;;;;-145.63;64.76;39225.69;5005856;28;20039;-70
2023/10/28 06:08:44;;;;;;;13.93;10.63;;;;;;;-145.63;64.85;39212.00;4999219;28;20026;-70
2023/10/28 06:11:10;;;;;;;13.63;10.25;;;;;;;-145.63;65.03;39206.13;5005122;28;20030;-71
2023/10/28 06:13:38;;;;;;;13.15;11.10;;;;;;;-145.63;64.65;39030.13;4998800;28;20030;-71
2023/10/28 06:16:04;;;;;;;11.95;10.02;;;;;;;-145.63;64.46;39243.28;5000494;28;20035;-70
2023/10/28 06:18:30;;;;;;;16.70;11.30;;;;;;;-145.63;63.82;39311.72;4996598;28;20311;-70
2023/10/28 06:20:56;;;;;;;14.20;10.88;;;;;;;-145.63;64.05;39276.53;4996724;28;20026;-70
2023/10/28 06:23:21;;;;;;;15.52;11.32;;;;;;;-145.63;63.73;39300.00;4996271;28;20026;-70
2023/10/28 06:25:50;;;;;;;15.52;10.73;;;;;;;-145.63;63.43;39280.44;4994080;28;20027;-70
2023/10/28 06:28:15;;;;;;;14.57;11.38;;;;;;;-145.63;64.09;39243.28;5002451;28;20032;-71
2023/10/28 06:30:51;;;;;;;14.32;10.82;;;;;;;-145.63;63.75;39266.75;5003395;28;20050;-71
2023/10/28 06:33:17;;;;;;;14.73;10.70;;;;;;;-145.63;64.27;39266.75;4996187;28;20164;-70
2023/10/28 06:35:44;;;;;;;14.55;11.15;;;;;;;-145.63;63.93;39286.31;4972758;28;20301;-69
2023/10/28 06:38:10;;;;;;;11.77;10.57;;;;;;;-145.63;64.14;39239.38;5000540;28;20029;-71
2023/10/28 06:40:38;;;;;;;12.43;9.20;;;;;;;-145.63;64.24;39251.09;4996383;28;20109;-70
2023/10/28 06:43:04;;;;;;;11.63;9.27;;;;;;;-145.63;64.55;39233.50;4996165;28;20082;-70
2023/10/28 06:45:31;;;;;;;13.93;10.32;;;;;;;-145.63;64.55;39260.88;4993795;28;20299;-69
2023/10/28 06:47:57;;;;;;;14.20;10.48;;;;;;;-145.63;63.88;39219.81;4996781;28;20026;-69
2023/10/28 06:50:23;;;;;;;12.70;9.07;;;;;;;-145.63;64.07;39047.72;4994240;28;20663;-71
2023/10/28 06:52:49;;;;;;;12.65;10.25;;;;;;;-145.63;64.09;39225.69;5003045;28;20049;-70
2023/10/28 06:55:15;;;;;;;12.02;9.80;;;;;;;-145.63;64.05;39200.25;4999653;28;20037;-69
2023/10/28 06:57:41;;;;;;;10.95;9.48;;;;;;;-145.63;64.13;39208.06;5001847;28;20041;-70
2023/10/28 07:00:14;;;;;;;12.55;10.25;;;;;;;-145.63;64.30;39272.63;4996423;28;20031;-71
2023/10/28 07:02:40;;;;;;;13.10;10.15;;;;;;;-145.63;63.78;39210.03;4996532;28;20025;-71
2023/10/28 07:05:10;;;;;;;11.60;9.65;;;;;;;-145.63;63.88;39346.94;4994265;28;20018;-70
2023/10/28 07:07:37;;;;;;;13.88;11.20;;;;;;;-145.63;64.10;39210.03;4999241;28;20023;-71
2023/10/28 07:10:04;;;;;;;11.50;9.88;;;;;;;-145.63;63.77;39241.31;4993864;28;20331;-70
2023/10/28 07:12:31;;;;;;;10.88;9.50;;;;;;;-145.63;64.11;39192.44;5000035;28;20022;-71
2023/10/28 07:14:56;;;;;;;12.85;10.65;;;;;;;-145.63;64.24;39186.56;4994770;28;20018;-70
2023/10/28 07:17:22;;;;;;;14.85;11.30;;;;;;;-145.63;64.30;39225.69;4997671;28;20276;-70
2023/10/28 07:19:49;;;;;;;15.52;11.13;;;;;;;-145.63;63.79;39215.91;4998545;28;20029;-69
2023/10/28 07:22:22;;;;;;;15.07;11.90;;;;;;;-145.63;64.13;39212.00;4998366;28;20034;-69
2023/10/28 07:24:49;;;;;;;12.25;10.52;;;;;;;-145.63;63.87;39243.28;4983325;28;20061;-69
2023/10/28 07:27:15;;;;;;;11.80;10.40;;;;;;;-145.63;63.62;39276.53;4996061;28;20035;-69
2023/10/28 07:29:42;;;;;;;15.95;10.80;;;;;;;-145.63;63.59;39251.09;4996174;28;20038;-68
2023/10/28 07:32:09;;;;;;;12.60;10.95;;;;;;;-145.63;64.17;39223.72;4995881;28;20026;-69
2023/10/28 07:34:35;;;;;;;12.40;9.13;;;;;;;-145.63;64.55;39206.13;4999022;28;20034;-69
2023/10/28 07:37:03;;;;;;;12.05;10.18;;;;;;;-145.63;64.07;39192.44;4998240;28;20030;-70
2023/10/28 07:39:30;;;;;;;14.75;11.18;;;;;;;-145.63;64.35;39229.59;5004681;28;20072;-69
2023/10/28 07:41:56;;;;;;;11.70;10.35;;;;;;;-145.63;64.43;39212.00;5004266;28;20086;-69
2023/10/28 07:44:22;;;;;;;11.85;9.68;;;;;;;-145.63;64.43;39264.78;5004030;28;20326;-69
2023/10/28 07:46:48;;;;;;;13.15;10.40;;;;;;;-145.63;64.28;39213.94;4986954;28;20041;-70
2023/10/28 07:49:14;;;;;;;13.90;11.35;;;;;;;-145.63;64.42;39215.91;4979603;28;20291;-70
2023/10/28 07:51:40;;;;;;;11.45;9.77;;;;;;;-145.63;64.55;39212.00;5003666;28;20097;-69
2023/10/28 07:54:06;;;;;;;13.80;11.00;;;;;;;-145.63;64.46;39198.31;4994008;28;20022;-70
2023/10/28 07:56:35;;;;;;;12.48;10.70;;;;;;;-145.63;64.59;39198.31;4979335;28;20045;-72
2023/10/28 07:59:01;;;;;;;12.43;11.13;;;;;;;-145.63;64.61;39239.38;4986414;28;20018;-70
2023/10/28 08:01:29;;;;;;;14.70;10.82;;;;;;;-145.63;64.50;39221.78;5004220;28;20242;-68
2023/10/28 08:03:56;;;;;;;10.70;9.60;;;;;;;-145.63;64.28;39212.00;4982483;28;20027;-69
2023/10/28 08:06:23;;;;;;;13.40;10.10;;;;;;;-145.63;64.42;39243.28;5003000;28;20032;-69
2023/10/28 08:08:48;;;;;;;10.52;9.45;;;;;;;-145.63;64.57;39225.69;5004033;28;20022;-70
2023/10/28 08:11:16;;;;;;;12.85;9.88;;;;;;;-145.63;64.83;39243.28;5003928;28;20045;-69
2023/10/28 08:13:42;;;;;;;13.68;10.90;;;;;;;-145.63;64.54;39223.72;5003610;28;20206;-71
2023/10/28 08:16:12;;;;;;;11.25;9.52;;;;;;;-145.63;64.67;39219.81;5003886;28;20022;-70
2023/10/28 08:18:40;;;;;;;11.85;10.65;;;;;;;-145.63;64.59;39235.47;5003943;28;20022;-70
2023/10/28 08:21:07;;;;;;;11.57;10.38;;;;;;;-145.63;64.38;39204.16;4970167;28;20202;-70
2023/10/28 08:23:33;;;;;;;12.90;10.05;;;;;;;-145.63;64.01;39247.19;5003287;28;20026;-70
2023/10/28 08:25:59;;;;;;;11.90;10.13;;;;;;;-145.63;63.95;39204.16;5003795;28;20032;-69
2023/10/28 08:28:27;;;;;;;12.93;10.25;;;;;;;-145.63;63.77;39182.66;5003677;28;20081;-69
2023/10/28 08:30:54;;;;;;;10.38;9.27;;;;;;;-145.63;63.69;39212.00;5002932;28;20026;-70
2023/10/28 08:33:20;;;;;;;12.85;11.15;;;;;;;-145.63;63.78;39219.81;5003287;28;20117;-69
2023/10/28 08:35:47;;;;;;;13.98;10.07;;;;;;;-145.63;63.73;39227.63;5003882;28;20037;-69
2023/10/28 08:38:16;;;;;;;11.23;9.38;;;;;;;-145.63;64.08;39227.63;5003033;28;20088;-69
2023/10/28 08:40:50;;;;;;;11.95;9.63;;;;;;;-145.63;63.79;39212.00;5003333;28;20023;-69
2023/10/28 08:43:17;;;;;;;10.73;9.23;;;;;;;-145.63;63.67;39292.19;5002848;28;20080;-69
2023/10/28 08:45:45;;;;;;;12.15;8.98;;;;;;;-145.63;63.70;39241.31;4982221;28;20461;-70
2023/10/28 08:48:20;;;;;;;10.65;9.10;;;;;;;-145.63;63.59;39237.41;4985316;28;20049;-71
2023/10/28 08:50:51;;;;;;;9.32;8.43;;;;;;;-145.63;63.67;39274.56;5007512;28;20033;-69
2023/10/28 08:53:18;;;;;;;10.10;8.43;;;;;;;-145.63;63.66;39282.41;5007269;28;20049;-71
2023/10/28 08:55:48;;;;;;;8.75;7.85;;;;;;;-145.63;63.62;39276.53;5006894;28;20072;-70
2023/10/28 08:58:16;;;;;;;9.50;8.20;;;;;;;-145.63;63.34;39215.91;5007026;28;20026;-70
2023/10/28 09:00:43;;;;;;;8.32;6.80;;;;;;;-145.63;63.45;39233.50;5007255;28;20029;-68
2023/10/28 09:03:10;;;;;;;8.85;7.30;;;;;;;-145.63;63.87;39249.16;5007217;28;20299;-69
2023/10/28 09:05:38;;;;;;;8.85;7.95;;;;;;;-145.63;63.56;39200.25;5007146;28;20030;-70
2023/10/28 09:08:04;;;;;;;7.63;5.85;;;;;;;-145.63;63.85;39223.72;5021430;28;20022;-69
2023/10/28 09:10:30;;;;;;;8.85;7.45;;;;;;;-145.63;64.26;39215.91;5007657;28;20029;-68
2023/10/28 09:12:56;;;;;;;8.23;6.95;;;;;;;-145.63;64.11;39215.91;5004811;28;20030;-71
2023/10/28 09:15:21;;;;;;;7.78;6.70;;;;;;;-145.63;64.38;39256.97;5006917;28;20034;-67
2023/10/28 09:17:47;;;;;;;8.27;7.38;;;;;;;-145.63;64.50;39237.41;5006863;28;20242;-69
2023/10/28 09:20:13;;;;;;;9.18;8.13;;;;;;;-145.63;64.29;39247.19;5006956;28;20026;-69
2023/10/28 09:22:42;;;;;;;10.23;8.05;;;;;;;-145.63;64.36;39272.63;4989085;28;20038;-70
2023/10/28 09:25:09;;;;;;;7.90;7.05;;;;;;;-145.63;64.36;39196.34;5004844;28;20034;-67
2023/10/28 09:27:35;;;;;;;8.55;7.65;;;;;;;-145.63;64.59;39204.16;5005802;28;20097;-68
2023/10/28 09:30:06;;;;;;;8.73;7.82;;;;;;;-145.63;64.51;38926.47;5000929;28;20057;-70
2023/10/28 09:32:33;;;;;;;10.35;8.20;;;;;;;-145.63;64.06;39399.75;5003926;28;20026;-68
2023/10/28 09:35:05;;;;;;;9.60;8.57;;;;;;;-145.63;64.26;39272.63;5006628;28;20029;-69
2023/10/28 09:37:41;;;;;;;10.90;8.98;;;;;;;-145.63;64.53;39231.53;5006916;28;20081;-67
2023/10/28 09:40:10;;;;;;;8.38;7.53;;;;;;;-145.63;64.28;39253.06;4988952;28;20038;-69
2023/10/28 09:42:37;;;;;;;10.02;8.15;;;;;;;-145.63;64.38;39264.78;5006502;28;20022;-70
2023/10/28 09:45:05;;;;;;;8.45;7.40;;;;;;;-145.63;64.20;39284.34;5006542;28;20276;-68
2023/10/28 09:47:49;;;;;;;7.60;6.80;;;;;;;-145.63;64.40;39010.56;5007109;28;20026;-70
2023/10/28 09:50:16;;;;;;;7.95;6.60;;;;;;;-145.63;64.27;39256.97;5005862;28;20034;-69
2023/10/28 09:52:44;;;;;;;7.35;6.60;;;;;;;-145.63;64.28;39221.78;5006497;28;20030;-68
2023/10/28 09:55:13;;;;;;;9.90;7.05;;;;;;;-145.63;63.80;39272.63;5004632;28;20085;-69
2023/10/28 09:57:40;;;;;;;7.50;6.07;;;;;;;-145.63;63.96;39264.78;5005618;28;20210;-68
2023/10/28 10:00:25;;;;;;;8.20;6.97;;;;;;;-145.63;64.25;39231.53;5005487;28;20034;-68
2023/10/28 10:03:06;;;;;;;8.18;6.78;;;;;;;-145.63;64.44;39215.91;5006128;28;20034;-68
2023/10/28 10:05:45;;;;;;;8.00;6.28;;;;;;;-145.63;64.24;39204.16;5006226;28;20042;-67
2023/10/28 10:08:24;;;;;;;8.35;6.30;;;;;;;-145.63;64.57;39237.41;4987954;28;20022;-68
2023/10/28 10:10:52;;;;;;;6.80;5.93;;;;;;;-145.63;64.32;39235.47;4988719;28;20030;-68
2023/10/28 10:13:18;;;;;;;8.48;6.65;;;;;;;-145.63;64.78;39253.06;5002471;28;20035;-69
2023/10/28 10:16:03;;;;;;;9.85;7.60;;;;;;;-145.63;64.42;39258.94;5003880;28;20459;-68
2023/10/28 10:18:40;;;;;;;9.90;8.48;;;;;;;-145.63;64.61;39344.97;5004933;28;20097;-69
2023/10/28 10:21:09;;;;;;;9.63;7.68;;;;;;;-145.63;64.38;39157.22;5005867;28;20194;-67
2023/10/28 10:23:45;;;;;;;7.75;4.85;;;;;;;-145.63;64.64;39237.41;5006149;28;20057;-68
2023/10/28 10:26:26;;;;;;;8.35;6.55;;;;;;;-145.63;64.79;39247.19;4988403;28;20110;-69
2023/10/28 10:28:55;;;;;;;8.30;7.40;;;;;;;-145.63;65.00;39284.34;5006088;28;20032;-70
2023/10/28 10:31:33;;;;;;;10.20;7.32;;;;;;;-145.63;65.06;39182.66;5005690;28;20338;-70
2023/10/28 10:34:09;;;;;;;9.70;7.70;;;;;;;-145.63;64.77;39258.94;5005816;28;20026;-69
2023/10/28 10:36:40;;;;;;;11.27;8.60;;;;;;;-145.63;64.57;39221.78;5005819;28;20208;-70
2023/10/28 10:39:18;;;;;;;8.60;7.53;;;;;;;-145.63;64.37;39256.97;5005439;28;20030;-69
2023/10/28 10:41:51;;;;;;;10.35;7.93;;;;;;;-145.63;64.65;39231.53;5005734;28;20077;-70
2023/10/28 10:44:21;;;;;;;9.15;7.82;;;;;;;-145.63;64.72;39247.19;5005757;28;20030;-69
2023/10/28 10:46:48;;;;;;;7.30;6.60;;;;;;;-145.63;64.91;39258.94;5005535;28;20045;-68
2023/10/28 10:49:14;;;;;;;13.90;11.20;;;;;;;-145.63;64.87;39210.03;5005127;28;20054;-68
2023/10/28 10:51:40;;;;;;;10.30;7.00;;;;;;;-145.63;64.92;39253.06;5005381;28;20054;-69
2023/10/28 10:54:06;;;;;;;8.35;7.55;;;;;;;-145.63;65.05;39274.56;5004918;28;20030;-69
2023/10/28 10:56:32;;;;;;;8.93;7.63;;;;;;;-145.63;65.11;39266.75;5005333;28;20037;-68
2023/10/28 10:58:58;;;;;;;9.45;7.35;;;;;;;-145.63;65.03;39237.41;5005422;28;20310;-68
2023/10/28 11:01:25;;;;;;;8.90;8.00;;;;;;;-145.63;65.00;39290.22;5004677;28;20056;-69
2023/10/28 11:03:51;;;;;;;8.18;7.28;;;;;;;-145.63;64.90;39255.00;5004695;28;20041;-69
2023/10/28 11:06:17;;;;;;;8.85;7.22;;;;;;;-145.63;65.10;39251.09;4986762;28;20030;-67